• Join FlightAware (Why Join?)
  • Login
  • US Flag 
11:23PM EDT


 

Airport Tracker/Info


-or-


 

Live Flight TrackerFlight Track Log ✈ EJA982 ✈ 19-Jul-2013 ✈ KIWA - KSJC

Flight Track Log - Related Links

Times and Time Zones

All times are in EDT time to prevent confusion due to time zone crossing. See the EJA982 flight status page for this flight to view local times or setup timezone preferences in your user account.

Time Position Orientation Groundspeed Altitude Reporting Facility
EDT Latitude Longitude Course Direction KTS MPH feet Rate Location/Type
02:36PM 33.3000 -111.6500 140° Southeast 153 176 2,000  Level Phoenix TRACON
02:37PM 33.2667 -111.6167 140° Southeast 192 221 4,000 1,980 Climbing Phoenix TRACON
02:38PM 33.2500 -111.5500 107° East 267 307 5,800 2,820 Climbing Phoenix TRACON
02:39PM 33.3167 -111.5500 360° North 291 335 9,700 3,900 Climbing Phoenix TRACON
02:40PM 33.3833 -111.6167 320° Northwest 315 362 13,700 3,780 Climbing Phoenix TRACON
02:41PM 33.4333 -111.7167 301° West 341 392 17,400 2,640 Climbing Phoenix TRACON
02:42PM 33.4867 -111.8286 300° West 352 405 19,900 1,560 Climbing Albuquerque Center
02:43PM 33.5411 -111.9469 299° West 403 464 21,100 1,740 Climbing Albuquerque Center
02:44PM 33.6242 -112.0786 307° West 416 479 23,500 2,100 Climbing Albuquerque Center
02:45PM 33.7231 -112.1467 330° Northwest 408 470 25,500 1,980 Climbing Albuquerque Center
02:46PM 33.8247 -112.2094 333° Northwest 408 470 27,600 1,980 Climbing Albuquerque Center
02:47PM 33.9269 -112.2728 333° Northwest 410 472 29,600 1,740 Climbing Albuquerque Center
02:48PM 34.0311 -112.3358 333° Northwest 415 478 31,300 1,560 Climbing Albuquerque Center
02:49PM 34.1378 -112.4019 333° Northwest 426 490 32,900 1,500 Climbing Albuquerque Center
02:50PM 34.2481 -112.4694 333° Northwest 439 505 34,400 1,980 Climbing Albuquerque Center
02:51PM 34.3775 -112.5500 333° Northwest 436 502 37,000 1,200 Climbing Albuquerque Center
02:52PM 34.4878 -112.6333 328° Northwest 455 524 37,000  Level Albuquerque Center
02:53PM 34.5600 -112.7814 301° West 493 567 37,000  Level Albuquerque Center
02:54PM 34.6303 -112.9383 299° West 514 592 37,100 480 Climbing Albuquerque Center
02:55PM 34.7019 -113.0978 299° West 527 606 38,000 420 Climbing Albuquerque Center
02:56PM 34.7731 -113.2567 299° West 532 612 38,000  Level Albuquerque Center
02:57PM 34.8411 -113.4142 298° West 527 606 38,000  Level Albuquerque Center
02:59PM 34.9328 -113.5947 302° West 516 594 38,000  Level Los Angeles Center
03:00PM 35.0319 -113.7536 307° West 494 568 38,000  Level Los Angeles Center
03:01PM 35.1147 -113.8897 307° West 497 572 38,000  Level Los Angeles Center
03:02PM 35.1972 -114.0256 307° West 506 582 38,000  Level Los Angeles Center
03:03PM 35.2792 -114.1614 306° West 500 575 38,000  Level Los Angeles Center
03:04PM 35.3636 -114.2953 308° West 496 571 38,000  Level Los Angeles Center
03:05PM 35.4606 -114.4553 307° West 489 563 38,000  Level Los Angeles Center
03:06PM 35.5411 -114.5897 306° West 487 560 38,000  Level Los Angeles Center
03:07PM 35.6222 -114.7236 307° West 488 562 38,000  Level Los Angeles Center
03:08PM 35.7028 -114.8581 306° West 488 562 38,000  Level Los Angeles Center
03:09PM 35.7828 -114.9906 307° West 485 558 38,000  Level Los Angeles Center
03:10PM 35.8783 -115.1525 306° West 485 558 38,000  Level Los Angeles Center
03:11PM 35.9575 -115.2878 306° West 485 558 38,000  Level Los Angeles Center
03:12PM 36.0364 -115.4222 306° West 483 556 38,000  Level Los Angeles Center
03:13PM 36.1183 -115.5597 306° West 488 562 38,000  Level Los Angeles Center
03:14PM 36.1978 -115.6997 305° West 487 560 38,000  Level Los Angeles Center
03:15PM 36.2781 -115.8414 305° West 493 567 38,000  Level Los Angeles Center
03:16PM 36.3422 -116.0103 295° West 481 554 38,000  Level Los Angeles Center
03:17PM 36.3769 -116.1714 285° West 480 552 38,000  Level Los Angeles Center
03:18PM 36.4139 -116.3364 286° West 481 554 38,000  Level Los Angeles Center
03:19PM 36.4478 -116.4975 285° West 483 556 38,000  Level Los Angeles Center
03:20PM 36.4825 -116.6556 285° West 479 551 38,000  Level Los Angeles Center
03:21PM 36.5164 -116.8164 285° West 482 555 38,000  Level Los Angeles Center
03:22PM 36.5514 -116.9761 285° West 481 554 38,000  Level Los Angeles Center
03:23PM 36.5839 -117.1339 284° West 478 550 38,000  Level Los Angeles Center
03:24PM 36.6247 -117.3253 285° West 478 550 38,000  Level Los Angeles Center
03:25PM 36.6575 -117.4839 284° West 478 550 38,000  Level Los Angeles Center
03:26PM 36.6903 -117.6433 284° West 477 549 38,000  Level Los Angeles Center
03:28PM 36.7228 -117.8025 284° West 477 549 38,000  Level Los Angeles Center
03:28PM 36.7553 -117.9681 284° West 473 544 38,000  Level Oakland Center
03:30PM 36.7953 -118.1594 285° West 474 545 38,000  Level Los Angeles Center
03:31PM 36.8269 -118.3189 284° West 474 545 38,000  Level Los Angeles Center
03:32PM 36.8494 -118.4422 283° West 470 541 38,000  Level Oakland Center
03:33PM 36.8825 -118.6025 285° West 473 544 38,000  Level Oakland Center
03:34PM 36.9192 -118.7931 284° West 473 544 38,000 -60 Level Oakland Center
03:35PM 36.9497 -118.9489 284° West 468 539 37,900 -420 Descending Oakland Center
03:36PM 36.9792 -119.1058 283° West 466 536 37,200 -1,380 Descending Oakland Center
03:37PM 37.0081 -119.2550 284° West 449 517 35,100 -1,620 Descending Oakland Center
03:38PM 37.0372 -119.4078 283° West 452 520 34,000 -720 Descending Oakland Center
03:39PM 37.0681 -119.5711 283° West 479 551 33,700 -300 Descending Oakland Center
03:40PM 37.1042 -119.7633 283° West 475 547 33,400 -1,020 Descending Oakland Center
03:41PM 37.1286 -119.8969 283° West 463 533 31,700 -1,860 Descending Oakland Center
03:42PM 37.1631 -120.0800 283° West 453 521 29,600 -1,920 Descending Oakland Center
03:43PM 37.1892 -120.2283 283° West 442 509 27,800 -1,800 Descending Oakland Center
03:44PM 37.2142 -120.3767 282° West 437 503 26,000 -1,680 Descending Oakland Center
03:45PM 37.2000 -120.4667 259° West 491 565 24,900 -1,740 Descending Northern Cal TRACON
03:46PM 37.1667 -120.6167 254° West 414 476 23,100 -1,800 Descending Northern Cal TRACON
03:47PM 37.1500 -120.7500 261° West 391 450 21,300 -1,860 Descending Northern Cal TRACON
03:48PM 37.1167 -120.8833 253° West 383 441 19,400 -1,920 Descending Northern Cal TRACON
03:49PM 37.0833 -121.0000 250° West 378 435 17,500 -1,680 Descending Northern Cal TRACON
03:50PM 37.0667 -121.1167 260° West 368 423 16,100 -1,500 Descending Northern Cal TRACON
03:51PM 37.0333 -121.2500 253° West 357 411 14,600 -1,560 Descending Northern Cal TRACON
03:51PM 37.0228 -121.2981 255° West 361 415 13,800 -1,440 Descending Oakland Center
03:52PM 36.9961 -121.4158 254° West 355 409 12,400 -1,500 Descending Oakland Center
03:53PM 37.0117 -121.5286 280° West 343 395 10,700 -1,920 Descending Oakland Center
03:54PM 37.0658 -121.6072 311° West 308 354 8,500 -1,800 Descending Oakland Center
03:55PM 37.1242 -121.6658 321° Northwest 260 299 7,100 -1,500 Descending Oakland Center
03:56PM 37.1731 -121.7206 318° Northwest 236 272 5,400 -1,680 Descending Oakland Center
03:57PM 37.2256 -121.7831 317° Northwest 227 261 3,700 -1,440 Descending Oakland Center
03:58PM 37.2656 -121.8267 319° Northwest 208 239 2,500 -720 Descending Oakland Center
03:59PM 37.3011 -121.8631 321° Northwest 182 209 2,200 -840 Descending Oakland Center
04:00PM 37.3317 -121.8978 318° Northwest 164 189 800 -1,380 Descending Oakland Center
04:03PM 37.3500 -121.9167 North  Level FlightAware Approximate
04:10PM 37.3627 -121.9291 North  Level Estimated